sensor_id;sensor_type;location;lat;lon;timestamp;temperature;humidity
23717;DHT22;22094;52.130;5.598;2023-09-19T00:01:32;14.20;1.00
23717;DHT22;22094;52.130;5.598;2023-09-19T00:03:57;14.20;1.00
23717;DHT22;22094;52.130;5.598;2023-09-19T00:06:23;14.20;1.00
23717;DHT22;22094;52.130;5.598;2023-09-19T00:08:51;14.10;1.00
23717;DHT22;22094;52.130;5.598;2023-09-19T00:11:17;14.10;1.00
23717;DHT22;22094;52.130;5.598;2023-09-19T00:13:43;14.20;1.00
23717;DHT22;22094;52.130;5.598;2023-09-19T00:16:10;14.10;1.00
23717;DHT22;22094;52.130;5.598;2023-09-19T00:18:37;14.00;1.00
23717;DHT22;22094;52.130;5.598;2023-09-19T00:21:03;14.00;1.00
23717;DHT22;22094;52.130;5.598;2023-09-19T00:23:30;14.10;1.00
23717;DHT22;22094;52.130;5.598;2023-09-19T00:26:00;14.10;1.00
23717;DHT22;22094;52.130;5.598;2023-09-19T00:28:29;14.10;1.00
23717;DHT22;22094;52.130;5.598;2023-09-19T00:30:55;14.10;1.00
23717;DHT22;22094;52.130;5.598;2023-09-19T00:33:21;14.10;1.00
23717;DHT22;22094;52.130;5.598;2023-09-19T00:35:52;14.00;1.00
23717;DHT22;22094;52.130;5.598;2023-09-19T00:38:19;14.00;1.00
23717;DHT22;22094;52.130;5.598;2023-09-19T00:40:48;14.00;1.00
23717;DHT22;22094;52.130;5.598;2023-09-19T00:43:15;14.00;1.00
23717;DHT22;22094;52.130;5.598;2023-09-19T00:45:44;13.90;1.00
23717;DHT22;22094;52.130;5.598;2023-09-19T00:48:10;13.90;1.00
23717;DHT22;22094;52.130;5.598;2023-09-19T00:50:37;14.00;1.00
23717;DHT22;22094;52.130;5.598;2023-09-19T00:53:05;14.00;1.00
23717;DHT22;22094;52.130;5.598;2023-09-19T00:55:34;14.00;1.00
23717;DHT22;22094;52.130;5.598;2023-09-19T00:58:03;14.00;1.00
23717;DHT22;22094;52.130;5.598;2023-09-19T01:00:28;14.10;1.00
23717;DHT22;22094;52.130;5.598;2023-09-19T01:02:54;14.10;1.00
23717;DHT22;22094;52.130;5.598;2023-09-19T01:05:21;14.10;1.00
23717;DHT22;22094;52.130;5.598;2023-09-19T01:07:46;14.10;1.00
23717;DHT22;22094;52.130;5.598;2023-09-19T01:10:16;14.20;1.00
23717;DHT22;22094;52.130;5.598;2023-09-19T01:18:21;14.30;1.00
23717;DHT22;22094;52.130;5.598;2023-09-19T01:21:36;14.20;1.00
23717;DHT22;22094;52.130;5.598;2023-09-19T01:27:11;14.30;1.00
23717;DHT22;22094;52.130;5.598;2023-09-19T01:29:46;14.30;1.00
23717;DHT22;22094;52.130;5.598;2023-09-19T01:32:19;14.20;1.00
23717;DHT22;22094;52.130;5.598;2023-09-19T01:37:20;14.20;1.00
23717;DHT22;22094;52.130;5.598;2023-09-19T01:40:02;14.20;1.00
23717;DHT22;22094;52.130;5.598;2023-09-19T01:42:45;14.20;1.00
23717;DHT22;22094;52.130;5.598;2023-09-19T01:48:24;14.30;1.00
23717;DHT22;22094;52.130;5.598;2023-09-19T01:51:06;14.40;1.00
23717;DHT22;22094;52.130;5.598;2023-09-19T01:53:55;14.40;1.00
23717;DHT22;22094;52.130;5.598;2023-09-19T01:56:57;14.40;1.00
23717;DHT22;22094;52.130;5.598;2023-09-19T01:59:34;14.30;1.00
23717;DHT22;22094;52.130;5.598;2023-09-19T02:02:01;14.30;1.00
23717;DHT22;22094;52.130;5.598;2023-09-19T02:04:27;14.20;1.00
23717;DHT22;22094;52.130;5.598;2023-09-19T02:06:53;14.10;1.00
23717;DHT22;22094;52.130;5.598;2023-09-19T02:09:19;14.10;1.00
23717;DHT22;22094;52.130;5.598;2023-09-19T02:11:45;14.00;1.00
23717;DHT22;22094;52.130;5.598;2023-09-19T02:14:11;14.00;1.00
23717;DHT22;22094;52.130;5.598;2023-09-19T02:16:37;14.00;1.00
23717;DHT22;22094;52.130;5.598;2023-09-19T02:19:02;14.00;1.00
23717;DHT22;22094;52.130;5.598;2023-09-19T02:21:31;14.00;99.90
23717;DHT22;22094;52.130;5.598;2023-09-19T02:23:57;13.90;90.80
23717;DHT22;22094;52.130;5.598;2023-09-19T02:26:23;13.90;1.00
23717;DHT22;22094;52.130;5.598;2023-09-19T02:28:49;13.90;1.00
23717;DHT22;22094;52.130;5.598;2023-09-19T02:31:14;13.80;52.30
23717;DHT22;22094;52.130;5.598;2023-09-19T02:33:42;13.70;1.00
23717;DHT22;22094;52.130;5.598;2023-09-19T02:36:07;13.80;1.00
23717;DHT22;22094;52.130;5.598;2023-09-19T02:38:34;13.70;99.90
23717;DHT22;22094;52.130;5.598;2023-09-19T02:40:59;13.70;1.00
23717;DHT22;22094;52.130;5.598;2023-09-19T02:43:25;13.80;1.00
23717;DHT22;22094;52.130;5.598;2023-09-19T02:45:51;13.60;99.90
23717;DHT22;22094;52.130;5.598;2023-09-19T02:48:19;13.70;1.00
23717;DHT22;22094;52.130;5.598;2023-09-19T02:50:44;13.70;99.90
23717;DHT22;22094;52.130;5.598;2023-09-19T02:53:10;13.70;99.90
23717;DHT22;22094;52.130;5.598;2023-09-19T02:55:38;13.70;1.00
23717;DHT22;22094;52.130;5.598;2023-09-19T02:58:06;13.60;1.00
23717;DHT22;22094;52.130;5.598;2023-09-19T03:00:39;13.50;1.00
23717;DHT22;22094;52.130;5.598;2023-09-19T03:03:08;13.50;1.00
23717;DHT22;22094;52.130;5.598;2023-09-19T03:05:34;13.40;11.50
23717;DHT22;22094;52.130;5.598;2023-09-19T03:08:00;13.40;99.90
23717;DHT22;22094;52.130;5.598;2023-09-19T03:10:26;13.30;1.00
23717;DHT22;22094;52.130;5.598;2023-09-19T03:12:53;13.30;99.90
23717;DHT22;22094;52.130;5.598;2023-09-19T03:15:19;13.30;1.00
23717;DHT22;22094;52.130;5.598;2023-09-19T03:17:45;13.20;1.00
23717;DHT22;22094;52.130;5.598;2023-09-19T03:20:12;13.10;99.90
23717;DHT22;22094;52.130;5.598;2023-09-19T03:22:39;13.10;1.00
23717;DHT22;22094;52.130;5.598;2023-09-19T03:25:06;13.10;99.60
23717;DHT22;22094;52.130;5.598;2023-09-19T03:27:36;13.10;99.90
23717;DHT22;22094;52.130;5.598;2023-09-19T03:30:02;13.00;1.00
23717;DHT22;22094;52.130;5.598;2023-09-19T03:32:32;12.90;1.00
23717;DHT22;22094;52.130;5.598;2023-09-19T03:34:57;12.90;1.00
23717;DHT22;22094;52.130;5.598;2023-09-19T03:37:23;12.80;1.00
23717;DHT22;22094;52.130;5.598;2023-09-19T03:39:48;12.80;77.50
23717;DHT22;22094;52.130;5.598;2023-09-19T03:42:14;12.80;1.00
23717;DHT22;22094;52.130;5.598;2023-09-19T03:44:39;12.70;1.00
23717;DHT22;22094;52.130;5.598;2023-09-19T03:47:05;12.70;1.00
23717;DHT22;22094;52.130;5.598;2023-09-19T03:49:32;12.70;1.00
23717;DHT22;22094;52.130;5.598;2023-09-19T03:51:57;12.70;1.00
23717;DHT22;22094;52.130;5.598;2023-09-19T03:54:23;12.70;99.90
23717;DHT22;22094;52.130;5.598;2023-09-19T03:56:49;12.60;99.90
23717;DHT22;22094;52.130;5.598;2023-09-19T03:59:15;12.50;1.00
23717;DHT22;22094;52.130;5.598;2023-09-19T04:01:41;12.40;1.00
23717;DHT22;22094;52.130;5.598;2023-09-19T04:04:08;12.40;1.00
23717;DHT22;22094;52.130;5.598;2023-09-19T04:06:34;12.50;1.00
23717;DHT22;22094;52.130;5.598;2023-09-19T04:09:03;12.50;1.00
23717;DHT22;22094;52.130;5.598;2023-09-19T04:11:32;12.40;1.00
23717;DHT22;22094;52.130;5.598;2023-09-19T04:13:58;12.40;1.00
23717;DHT22;22094;52.130;5.598;2023-09-19T04:16:24;12.30;1.00
23717;DHT22;22094;52.130;5.598;2023-09-19T04:18:50;12.30;1.00
23717;DHT22;22094;52.130;5.598;2023-09-19T04:21:15;12.30;1.00
23717;DHT22;22094;52.130;5.598;2023-09-19T04:23:41;12.30;1.00
23717;DHT22;22094;52.130;5.598;2023-09-19T04:26:08;12.20;99.90
23717;DHT22;22094;52.130;5.598;2023-09-19T04:28:33;12.10;99.90
23717;DHT22;22094;52.130;5.598;2023-09-19T04:31:00;12.20;99.90
23717;DHT22;22094;52.130;5.598;2023-09-19T04:33:26;12.30;99.90
23717;DHT22;22094;52.130;5.598;2023-09-19T04:35:52;12.20;99.90
23717;DHT22;22094;52.130;5.598;2023-09-19T04:38:18;12.20;1.00
23717;DHT22;22094;52.130;5.598;2023-09-19T04:40:45;12.30;1.00
23717;DHT22;22094;52.130;5.598;2023-09-19T04:43:11;12.30;1.00
23717;DHT22;22094;52.130;5.598;2023-09-19T04:45:38;12.20;1.00
23717;DHT22;22094;52.130;5.598;2023-09-19T04:48:05;12.30;1.00
23717;DHT22;22094;52.130;5.598;2023-09-19T04:50:32;12.20;1.00
23717;DHT22;22094;52.130;5.598;2023-09-19T04:52:59;12.30;1.00
23717;DHT22;22094;52.130;5.598;2023-09-19T04:55:26;12.30;1.00
23717;DHT22;22094;52.130;5.598;2023-09-19T04:57:52;12.30;1.00
23717;DHT22;22094;52.130;5.598;2023-09-19T05:00:20;12.30;1.00
23717;DHT22;22094;52.130;5.598;2023-09-19T05:02:52;12.30;1.00
23717;DHT22;22094;52.130;5.598;2023-09-19T05:05:18;12.20;1.00
23717;DHT22;22094;52.130;5.598;2023-09-19T05:07:47;12.30;1.00
23717;DHT22;22094;52.130;5.598;2023-09-19T05:10:13;12.30;1.00
23717;DHT22;22094;52.130;5.598;2023-09-19T05:12:39;12.30;1.00
23717;DHT22;22094;52.130;5.598;2023-09-19T05:15:06;12.20;1.00
23717;DHT22;22094;52.130;5.598;2023-09-19T05:17:35;12.30;1.00
23717;DHT22;22094;52.130;5.598;2023-09-19T05:20:01;12.30;40.80
23717;DHT22;22094;52.130;5.598;2023-09-19T05:22:41;12.30;74.60
23717;DHT22;22094;52.130;5.598;2023-09-19T05:25:09;12.30;1.00
23717;DHT22;22094;52.130;5.598;2023-09-19T05:27:35;12.20;1.00
23717;DHT22;22094;52.130;5.598;2023-09-19T05:30:00;12.30;1.00
23717;DHT22;22094;52.130;5.598;2023-09-19T05:32:26;12.30;4.00
23717;DHT22;22094;52.130;5.598;2023-09-19T05:34:52;12.40;1.00
23717;DHT22;22094;52.130;5.598;2023-09-19T05:37:19;12.50;1.00
23717;DHT22;22094;52.130;5.598;2023-09-19T05:39:44;12.50;1.00
23717;DHT22;22094;52.130;5.598;2023-09-19T05:42:10;12.50;1.00
23717;DHT22;22094;52.130;5.598;2023-09-19T05:44:36;12.50;1.00
23717;DHT22;22094;52.130;5.598;2023-09-19T05:47:02;12.60;99.90
23717;DHT22;22094;52.130;5.598;2023-09-19T05:49:28;14.30;99.90
23717;DHT22;22094;52.130;5.598;2023-09-19T05:51:54;12.70;99.90
23717;DHT22;22094;52.130;5.598;2023-09-19T05:54:21;12.70;99.90
23717;DHT22;22094;52.130;5.598;2023-09-19T05:56:47;12.80;99.90
23717;DHT22;22094;52.130;5.598;2023-09-19T05:59:17;12.30;99.90
23717;DHT22;22094;52.130;5.598;2023-09-19T06:01:43;12.60;99.90
23717;DHT22;22094;52.130;5.598;2023-09-19T06:04:09;12.80;99.90
23717;DHT22;22094;52.130;5.598;2023-09-19T06:06:34;15.70;99.90
23717;DHT22;22094;52.130;5.598;2023-09-19T06:09:05;13.00;1.00
23717;DHT22;22094;52.130;5.598;2023-09-19T06:11:31;13.00;20.20
23717;DHT22;22094;52.130;5.598;2023-09-19T06:14:00;13.10;1.00
23717;DHT22;22094;52.130;5.598;2023-09-19T06:16:28;13.10;1.00
23717;DHT22;22094;52.130;5.598;2023-09-19T06:18:54;13.20;1.00
23717;DHT22;22094;52.130;5.598;2023-09-19T06:21:22;13.20;1.00
23717;DHT22;22094;52.130;5.598;2023-09-19T06:23:47;13.20;1.00
23717;DHT22;22094;52.130;5.598;2023-09-19T06:26:13;13.30;1.00
23717;DHT22;22094;52.130;5.598;2023-09-19T06:28:48;14.00;1.00
23717;DHT22;22094;52.130;5.598;2023-09-19T06:31:13;13.60;1.00
23717;DHT22;22094;52.130;5.598;2023-09-19T06:33:39;13.40;1.00
23717;DHT22;22094;52.130;5.598;2023-09-19T06:36:08;13.70;1.00
23717;DHT22;22094;52.130;5.598;2023-09-19T06:38:33;13.50;1.00
23717;DHT22;22094;52.130;5.598;2023-09-19T06:41:03;13.50;1.00
23717;DHT22;22094;52.130;5.598;2023-09-19T06:43:34;13.60;1.00
23717;DHT22;22094;52.130;5.598;2023-09-19T06:46:02;13.70;1.00
23717;DHT22;22094;52.130;5.598;2023-09-19T06:48:35;13.80;99.90
23717;DHT22;22094;52.130;5.598;2023-09-19T06:51:01;14.70;1.00
23717;DHT22;22094;52.130;5.598;2023-09-19T06:53:31;13.90;99.90
23717;DHT22;22094;52.130;5.598;2023-09-19T06:55:57;13.80;99.90
23717;DHT22;22094;52.130;5.598;2023-09-19T06:58:23;14.00;99.90
23717;DHT22;22094;52.130;5.598;2023-09-19T07:00:48;14.10;99.90
23717;DHT22;22094;52.130;5.598;2023-09-19T07:03:15;13.70;99.90
23717;DHT22;22094;52.130;5.598;2023-09-19T07:05:47;14.10;99.90
23717;DHT22;22094;52.130;5.598;2023-09-19T07:08:13;16.30;99.90
23717;DHT22;22094;52.130;5.598;2023-09-19T07:10:40;14.30;99.90
23717;DHT22;22094;52.130;5.598;2023-09-19T07:13:07;14.30;99.90
23717;DHT22;22094;52.130;5.598;2023-09-19T07:15:37;16.20;99.90
23717;DHT22;22094;52.130;5.598;2023-09-19T07:18:06;14.50;99.90
23717;DHT22;22094;52.130;5.598;2023-09-19T07:20:32;14.40;99.90
23717;DHT22;22094;52.130;5.598;2023-09-19T07:23:01;14.50;99.90
23717;DHT22;22094;52.130;5.598;2023-09-19T07:25:27;13.00;99.90
23717;DHT22;22094;52.130;5.598;2023-09-19T07:27:55;14.70;91.70
23717;DHT22;22094;52.130;5.598;2023-09-19T07:32:47;14.60;58.50
23717;DHT22;22094;52.130;5.598;2023-09-19T07:35:13;15.20;1.00
23717;DHT22;22094;52.130;5.598;2023-09-19T07:37:40;15.40;22.90
23717;DHT22;22094;52.130;5.598;2023-09-19T07:40:06;15.40;3.70
23717;DHT22;22094;52.130;5.598;2023-09-19T07:42:35;15.10;1.00
23717;DHT22;22094;52.130;5.598;2023-09-19T07:45:02;15.10;1.00
23717;DHT22;22094;52.130;5.598;2023-09-19T07:47:28;13.80;1.00
23717;DHT22;22094;52.130;5.598;2023-09-19T07:49:55;13.20;1.00
23717;DHT22;22094;52.130;5.598;2023-09-19T07:52:23;13.80;1.00
23717;DHT22;22094;52.130;5.598;2023-09-19T07:54:49;16.10;1.00
23717;DHT22;22094;52.130;5.598;2023-09-19T07:57:15;15.10;1.00
23717;DHT22;22094;52.130;5.598;2023-09-19T08:02:08;16.80;1.00
23717;DHT22;22094;52.130;5.598;2023-09-19T08:07:06;15.00;1.00
23717;DHT22;22094;52.130;5.598;2023-09-19T08:09:34;15.90;1.00
23717;DHT22;22094;52.130;5.598;2023-09-19T08:12:00;16.60;1.00
23717;DHT22;22094;52.130;5.598;2023-09-19T08:16:58;16.30;1.00
23717;DHT22;22094;52.130;5.598;2023-09-19T08:19:24;14.70;1.00
23717;DHT22;22094;52.130;5.598;2023-09-19T08:21:56;17.70;1.00
23717;DHT22;22094;52.130;5.598;2023-09-19T08:26:50;16.90;1.00
23717;DHT22;22094;52.130;5.598;2023-09-19T08:29:16;16.50;1.00
23717;DHT22;22094;52.130;5.598;2023-09-19T08:34:08;17.00;1.00
23717;DHT22;22094;52.130;5.598;2023-09-19T08:36:34;17.20;1.00
23717;DHT22;22094;52.130;5.598;2023-09-19T08:39:00;15.20;1.00
23717;DHT22;22094;52.130;5.598;2023-09-19T08:41:26;16.30;1.00
23717;DHT22;22094;52.130;5.598;2023-09-19T08:46:20;17.40;1.00
23717;DHT22;22094;52.130;5.598;2023-09-19T08:48:57;16.00;1.00
23717;DHT22;22094;52.130;5.598;2023-09-19T08:51:41;17.20;1.00
23717;DHT22;22094;52.130;5.598;2023-09-19T08:54:23;16.10;1.00
23717;DHT22;22094;52.130;5.598;2023-09-19T08:56:54;17.30;1.00
23717;DHT22;22094;52.130;5.598;2023-09-19T08:59:23;17.10;1.00
23717;DHT22;22094;52.130;5.598;2023-09-19T09:01:49;16.60;1.00
23717;DHT22;22094;52.130;5.598;2023-09-19T09:09:16;18.10;1.00
23717;DHT22;22094;52.130;5.598;2023-09-19T09:14:08;17.90;1.00
23717;DHT22;22094;52.130;5.598;2023-09-19T09:16:34;18.10;1.00
23717;DHT22;22094;52.130;5.598;2023-09-19T09:19:00;17.20;1.00
23717;DHT22;22094;52.130;5.598;2023-09-19T09:21:26;19.20;1.00
23717;DHT22;22094;52.130;5.598;2023-09-19T09:33:57;18.90;1.00
23717;DHT22;22094;52.130;5.598;2023-09-19T09:36:37;17.60;1.00
23717;DHT22;22094;52.130;5.598;2023-09-19T09:39:04;17.10;1.00
23717;DHT22;22094;52.130;5.598;2023-09-19T09:41:50;18.00;1.00
23717;DHT22;22094;52.130;5.598;2023-09-19T09:44:17;18.60;1.00
23717;DHT22;22094;52.130;5.598;2023-09-19T09:46:45;19.80;1.00
23717;DHT22;22094;52.130;5.598;2023-09-19T09:49:23;17.30;1.00
23717;DHT22;22094;52.130;5.598;2023-09-19T09:54:27;19.20;1.00
23717;DHT22;22094;52.130;5.598;2023-09-19T09:57:00;19.10;1.00
23717;DHT22;22094;52.130;5.598;2023-09-19T09:59:46;19.30;1.00
23717;DHT22;22094;52.130;5.598;2023-09-19T10:02:25;19.40;1.00
23717;DHT22;22094;52.130;5.598;2023-09-19T10:04:56;18.40;1.00
23717;DHT22;22094;52.130;5.598;2023-09-19T10:07:32;16.30;1.00
23717;DHT22;22094;52.130;5.598;2023-09-19T10:10:02;19.00;1.00
23717;DHT22;22094;52.130;5.598;2023-09-19T10:12:44;20.90;1.00
23717;DHT22;22094;52.130;5.598;2023-09-19T10:15:15;20.30;1.00
23717;DHT22;22094;52.130;5.598;2023-09-19T10:17:43;19.40;1.00
23717;DHT22;22094;52.130;5.598;2023-09-19T10:20:15;21.20;1.00
23717;DHT22;22094;52.130;5.598;2023-09-19T10:23:05;19.30;1.00
23717;DHT22;22094;52.130;5.598;2023-09-19T10:25:37;19.40;1.00
23717;DHT22;22094;52.130;5.598;2023-09-19T10:28:06;21.00;1.00
23717;DHT22;22094;52.130;5.598;2023-09-19T10:30:43;20.50;1.00
23717;DHT22;22094;52.130;5.598;2023-09-19T10:33:11;19.00;1.00
23717;DHT22;22094;52.130;5.598;2023-09-19T10:35:43;18.70;1.00
23717;DHT22;22094;52.130;5.598;2023-09-19T10:38:18;20.20;1.00
23717;DHT22;22094;52.130;5.598;2023-09-19T10:40:52;18.00;1.00
23717;DHT22;22094;52.130;5.598;2023-09-19T10:43:20;18.60;1.00
23717;DHT22;22094;52.130;5.598;2023-09-19T10:45:49;19.10;1.00
23717;DHT22;22094;52.130;5.598;2023-09-19T10:48:17;20.70;1.00
23717;DHT22;22094;52.130;5.598;2023-09-19T10:50:57;19.60;1.00
23717;DHT22;22094;52.130;5.598;2023-09-19T10:53:26;17.40;1.00
23717;DHT22;22094;52.130;5.598;2023-09-19T10:55:56;18.30;1.00
23717;DHT22;22094;52.130;5.598;2023-09-19T10:58:27;19.90;1.00
23717;DHT22;22094;52.130;5.598;2023-09-19T11:03:22;19.40;1.00
23717;DHT22;22094;52.130;5.598;2023-09-19T11:06:24;18.50;1.00
23717;DHT22;22094;52.130;5.598;2023-09-19T11:09:03;20.90;1.00
23717;DHT22;22094;52.130;5.598;2023-09-19T11:14:29;19.70;1.00
23717;DHT22;22094;52.130;5.598;2023-09-19T11:30:32;22.10;1.00
23717;DHT22;22094;52.130;5.598;2023-09-19T11:33:20;20.50;1.00
23717;DHT22;22094;52.130;5.598;2023-09-19T11:43:53;19.10;1.00
23717;DHT22;22094;52.130;5.598;2023-09-19T11:46:24;19.90;1.00
23717;DHT22;22094;52.130;5.598;2023-09-19T11:48:51;20.00;1.00
23717;DHT22;22094;52.130;5.598;2023-09-19T11:51:21;19.90;1.00
23717;DHT22;22094;52.130;5.598;2023-09-19T11:53:50;19.90;1.00
23717;DHT22;22094;52.130;5.598;2023-09-19T11:56:17;19.70;1.00
23717;DHT22;22094;52.130;5.598;2023-09-19T11:58:44;21.20;1.00
23717;DHT22;22094;52.130;5.598;2023-09-19T12:01:14;19.90;1.00
23717;DHT22;22094;52.130;5.598;2023-09-19T12:03:47;20.90;1.00
23717;DHT22;22094;52.130;5.598;2023-09-19T12:08:42;20.10;1.00
23717;DHT22;22094;52.130;5.598;2023-09-19T12:11:16;20.00;1.00
23717;DHT22;22094;52.130;5.598;2023-09-19T12:13:47;22.10;1.00
23717;DHT22;22094;52.130;5.598;2023-09-19T12:16:18;20.60;1.00
23717;DHT22;22094;52.130;5.598;2023-09-19T12:18:47;19.50;1.00
23717;DHT22;22094;52.130;5.598;2023-09-19T12:21:31;19.40;1.00
23717;DHT22;22094;52.130;5.598;2023-09-19T12:26:43;19.30;1.00
23717;DHT22;22094;52.130;5.598;2023-09-19T12:29:22;18.00;1.00
23717;DHT22;22094;52.130;5.598;2023-09-19T12:36:49;19.70;1.00
23717;DHT22;22094;52.130;5.598;2023-09-19T12:39:24;19.80;1.00
23717;DHT22;22094;52.130;5.598;2023-09-19T12:41:51;19.50;1.00
23717;DHT22;22094;52.130;5.598;2023-09-19T12:46:44;19.40;1.00
23717;DHT22;22094;52.130;5.598;2023-09-19T12:49:20;19.70;1.00
23717;DHT22;22094;52.130;5.598;2023-09-19T12:51:46;19.60;1.00
23717;DHT22;22094;52.130;5.598;2023-09-19T12:54:13;19.60;1.00
23717;DHT22;22094;52.130;5.598;2023-09-19T12:56:46;19.50;1.00
23717;DHT22;22094;52.130;5.598;2023-09-19T12:59:14;19.40;1.00
23717;DHT22;22094;52.130;5.598;2023-09-19T13:01:41;19.10;1.00
23717;DHT22;22094;52.130;5.598;2023-09-19T13:04:20;19.50;1.00
23717;DHT22;22094;52.130;5.598;2023-09-19T13:06:54;20.00;1.00
23717;DHT22;22094;52.130;5.598;2023-09-19T13:09:21;19.40;1.00
23717;DHT22;22094;52.130;5.598;2023-09-19T13:11:47;18.90;1.00
23717;DHT22;22094;52.130;5.598;2023-09-19T13:17:04;19.20;1.00
23717;DHT22;22094;52.130;5.598;2023-09-19T13:19:38;19.30;1.00
23717;DHT22;22094;52.130;5.598;2023-09-19T13:22:35;19.50;1.00
23717;DHT22;22094;52.130;5.598;2023-09-19T13:24:50;19.50;1.00
23717;DHT22;22094;52.130;5.598;2023-09-19T13:27:17;19.50;1.00
23717;DHT22;22094;52.130;5.598;2023-09-19T13:29:42;18.50;1.00
23717;DHT22;22094;52.130;5.598;2023-09-19T13:37:03;19.10;1.00
23717;DHT22;22094;52.130;5.598;2023-09-19T13:39:30;19.10;1.00
23717;DHT22;22094;52.130;5.598;2023-09-19T13:41:55;19.00;1.00
23717;DHT22;22094;52.130;5.598;2023-09-19T13:44:21;19.00;1.00
23717;DHT22;22094;52.130;5.598;2023-09-19T13:46:46;19.20;1.00
23717;DHT22;22094;52.130;5.598;2023-09-19T13:49:12;22.90;1.00
23717;DHT22;22094;52.130;5.598;2023-09-19T13:51:38;17.70;1.00
23717;DHT22;22094;52.130;5.598;2023-09-19T13:54:04;19.00;1.00
23717;DHT22;22094;52.130;5.598;2023-09-19T13:56:29;19.40;1.00
23717;DHT22;22094;52.130;5.598;2023-09-19T14:01:22;19.80;1.00
23717;DHT22;22094;52.130;5.598;2023-09-19T14:03:48;20.00;1.00
23717;DHT22;22094;52.130;5.598;2023-09-19T14:08:41;20.10;1.00
23717;DHT22;22094;52.130;5.598;2023-09-19T14:11:10;20.00;1.00
23717;DHT22;22094;52.130;5.598;2023-09-19T14:13:36;20.00;1.00
23717;DHT22;22094;52.130;5.598;2023-09-19T14:16:05;21.70;1.00
23717;DHT22;22094;52.130;5.598;2023-09-19T14:18:32;19.60;1.00
23717;DHT22;22094;52.130;5.598;2023-09-19T14:20:57;19.60;1.00
23717;DHT22;22094;52.130;5.598;2023-09-19T14:23:23;19.60;1.00
23717;DHT22;22094;52.130;5.598;2023-09-19T14:25:52;19.50;1.00
23717;DHT22;22094;52.130;5.598;2023-09-19T14:28:19;19.50;1.00
23717;DHT22;22094;52.130;5.598;2023-09-19T14:30:44;19.50;1.00
23717;DHT22;22094;52.130;5.598;2023-09-19T14:33:11;19.40;1.00
23717;DHT22;22094;52.130;5.598;2023-09-19T14:35:37;19.40;1.00
23717;DHT22;22094;52.130;5.598;2023-09-19T14:38:04;19.30;1.00
23717;DHT22;22094;52.130;5.598;2023-09-19T14:42:56;19.40;1.00
23717;DHT22;22094;52.130;5.598;2023-09-19T14:45:22;19.30;1.00
23717;DHT22;22094;52.130;5.598;2023-09-19T14:47:48;20.60;1.00
23717;DHT22;22094;52.130;5.598;2023-09-19T14:50:14;19.30;1.00
23717;DHT22;22094;52.130;5.598;2023-09-19T14:52:40;19.50;1.00
23717;DHT22;22094;52.130;5.598;2023-09-19T14:55:07;19.40;1.00
23717;DHT22;22094;52.130;5.598;2023-09-19T14:57:36;19.30;1.00
23717;DHT22;22094;52.130;5.598;2023-09-19T15:00:06;19.20;1.00
23717;DHT22;22094;52.130;5.598;2023-09-19T15:02:38;19.20;1.00
23717;DHT22;22094;52.130;5.598;2023-09-19T15:05:04;19.10;1.00
23717;DHT22;22094;52.130;5.598;2023-09-19T15:09:58;19.60;1.00
23717;DHT22;22094;52.130;5.598;2023-09-19T15:17:15;18.70;1.00
23717;DHT22;22094;52.130;5.598;2023-09-19T15:22:07;18.50;1.00
23717;DHT22;22094;52.130;5.598;2023-09-19T15:24:33;18.40;1.00
23717;DHT22;22094;52.130;5.598;2023-09-19T15:26:58;16.20;1.00
23717;DHT22;22094;52.130;5.598;2023-09-19T15:29:24;16.40;1.00
23717;DHT22;22094;52.130;5.598;2023-09-19T15:31:50;18.20;1.00
23717;DHT22;22094;52.130;5.598;2023-09-19T15:34:15;17.70;1.00
23717;DHT22;22094;52.130;5.598;2023-09-19T15:36:41;18.40;1.00
23717;DHT22;22094;52.130;5.598;2023-09-19T15:39:07;19.90;1.00
23717;DHT22;22094;52.130;5.598;2023-09-19T15:41:40;18.30;1.00
23717;DHT22;22094;52.130;5.598;2023-09-19T15:44:16;18.30;1.00
23717;DHT22;22094;52.130;5.598;2023-09-19T15:46:42;18.10;1.00
23717;DHT22;22094;52.130;5.598;2023-09-19T15:54:08;17.90;1.00
23717;DHT22;22094;52.130;5.598;2023-09-19T15:56:34;18.00;1.00
23717;DHT22;22094;52.130;5.598;2023-09-19T15:59:03;16.50;1.00
23717;DHT22;22094;52.130;5.598;2023-09-19T16:01:29;18.10;1.00
23717;DHT22;22094;52.130;5.598;2023-09-19T16:03:54;18.00;1.00
23717;DHT22;22094;52.130;5.598;2023-09-19T16:06:32;20.90;1.00
23717;DHT22;22094;52.130;5.598;2023-09-19T16:08:59;18.00;1.00
23717;DHT22;22094;52.130;5.598;2023-09-19T16:11:26;18.80;1.00
23717;DHT22;22094;52.130;5.598;2023-09-19T16:16:20;17.90;1.00
23717;DHT22;22094;52.130;5.598;2023-09-19T16:18:52;19.30;1.00
23717;DHT22;22094;52.130;5.598;2023-09-19T16:21:18;17.90;1.00
23717;DHT22;22094;52.130;5.598;2023-09-19T16:23:49;18.00;1.00
23717;DHT22;22094;52.130;5.598;2023-09-19T16:26:16;17.90;1.00
23717;DHT22;22094;52.130;5.598;2023-09-19T16:28:45;18.00;1.00
23717;DHT22;22094;52.130;5.598;2023-09-19T16:31:10;18.90;1.00
23717;DHT22;22094;52.130;5.598;2023-09-19T16:33:38;18.80;1.00
23717;DHT22;22094;52.130;5.598;2023-09-19T16:36:09;17.90;1.00
23717;DHT22;22094;52.130;5.598;2023-09-19T16:38:36;20.30;1.00
23717;DHT22;22094;52.130;5.598;2023-09-19T16:41:05;18.00;1.00
23717;DHT22;22094;52.130;5.598;2023-09-19T16:43:31;18.00;1.00
23717;DHT22;22094;52.130;5.598;2023-09-19T16:46:04;18.00;1.00
23717;DHT22;22094;52.130;5.598;2023-09-19T16:48:31;18.60;1.00
23717;DHT22;22094;52.130;5.598;2023-09-19T16:51:04;18.10;1.00
23717;DHT22;22094;52.130;5.598;2023-09-19T16:53:31;18.10;1.00
23717;DHT22;22094;52.130;5.598;2023-09-19T16:56:11;18.20;1.00
23717;DHT22;22094;52.130;5.598;2023-09-19T16:58:43;18.20;1.00
23717;DHT22;22094;52.130;5.598;2023-09-19T17:01:10;18.40;1.00
23717;DHT22;22094;52.130;5.598;2023-09-19T17:03:40;18.20;1.00
23717;DHT22;22094;52.130;5.598;2023-09-19T17:06:07;18.10;1.00
23717;DHT22;22094;52.130;5.598;2023-09-19T17:08:34;17.90;1.00
23717;DHT22;22094;52.130;5.598;2023-09-19T17:11:03;17.80;1.00
23717;DHT22;22094;52.130;5.598;2023-09-19T17:13:29;17.60;1.00
23717;DHT22;22094;52.130;5.598;2023-09-19T17:16:06;17.50;1.00
23717;DHT22;22094;52.130;5.598;2023-09-19T17:18:39;17.60;1.00
23717;DHT22;22094;52.130;5.598;2023-09-19T17:21:08;17.60;1.00
23717;DHT22;22094;52.130;5.598;2023-09-19T17:23:36;17.70;1.00
23717;DHT22;22094;52.130;5.598;2023-09-19T17:26:08;17.70;1.00
23717;DHT22;22094;52.130;5.598;2023-09-19T17:28:40;17.60;1.00
23717;DHT22;22094;52.130;5.598;2023-09-19T17:31:14;17.60;1.00
23717;DHT22;22094;52.130;5.598;2023-09-19T17:33:42;17.80;1.00
23717;DHT22;22094;52.130;5.598;2023-09-19T17:36:13;17.50;1.00
23717;DHT22;22094;52.130;5.598;2023-09-19T17:38:40;17.50;1.00
23717;DHT22;22094;52.130;5.598;2023-09-19T17:41:07;17.30;1.00
23717;DHT22;22094;52.130;5.598;2023-09-19T17:43:37;17.50;1.00
23717;DHT22;22094;52.130;5.598;2023-09-19T17:46:11;17.50;1.00
23717;DHT22;22094;52.130;5.598;2023-09-19T17:48:44;17.40;1.00
23717;DHT22;22094;52.130;5.598;2023-09-19T17:51:11;17.50;1.00
23717;DHT22;22094;52.130;5.598;2023-09-19T17:53:39;17.40;1.00
23717;DHT22;22094;52.130;5.598;2023-09-19T17:56:05;17.40;1.00
23717;DHT22;22094;52.130;5.598;2023-09-19T17:58:35;17.30;1.00